createdAt,value
2017-07-11T00:00:34.402Z,75.50
2017-07-11T00:03:00.357Z,75.40
2017-07-11T00:05:26.326Z,75.20
2017-07-11T00:07:52.264Z,75.00
2017-07-11T00:10:18.222Z,75.00
2017-07-11T00:12:44.207Z,75.30
2017-07-11T00:15:10.117Z,75.70
2017-07-11T00:17:36.066Z,75.90
2017-07-11T00:20:02.039Z,76.10
2017-07-11T00:22:28.011Z,75.90
2017-07-11T00:24:53.950Z,76.00
2017-07-11T00:27:19.887Z,76.00
2017-07-11T00:29:45.835Z,76.20
2017-07-11T00:32:11.783Z,76.20
2017-07-11T00:34:37.833Z,75.60
2017-07-11T00:37:03.801Z,75.80
2017-07-11T00:39:29.776Z,75.20
2017-07-11T00:41:55.742Z,75.20
2017-07-11T00:44:22.045Z,75.10
2017-07-11T00:46:47.989Z,75.20
2017-07-11T00:49:13.903Z,75.10
2017-07-11T00:51:39.885Z,75.20
2017-07-11T00:54:05.840Z,75.20
2017-07-11T00:56:31.776Z,75.70
2017-07-11T00:58:57.714Z,75.50
2017-07-11T01:01:23.690Z,75.40
2017-07-11T01:03:49.627Z,73.00
2017-07-11T01:06:15.576Z,71.40
2017-07-11T01:08:41.551Z,72.40
2017-07-11T01:11:07.505Z,71.70
2017-07-11T01:13:33.493Z,72.20
2017-07-11T01:16:00.343Z,71.00
2017-07-11T01:18:27.145Z,71.20
2017-07-11T01:20:53.089Z,71.20
2017-07-11T01:23:19.977Z,70.70
2017-07-11T01:25:45.965Z,71.00
2017-07-11T01:28:11.902Z,71.00
2017-07-11T01:30:38.629Z,71.00
2017-07-11T01:33:04.551Z,70.90
2017-07-11T01:35:30.483Z,71.10
2017-07-11T01:37:56.463Z,71.20
2017-07-11T01:40:22.396Z,72.20
2017-07-11T01:45:21.088Z,73.60
2017-07-11T01:47:47.011Z,73.80
2017-07-11T01:50:12.929Z,74.00
2017-07-11T01:52:38.901Z,75.00
2017-07-11T01:55:04.864Z,75.60
2017-07-11T01:57:30.798Z,75.90
2017-07-11T01:59:56.811Z,76.10
2017-07-11T02:02:22.747Z,76.60
2017-07-11T02:04:48.738Z,77.20
2017-07-11T02:07:14.782Z,77.40
2017-07-11T02:09:40.724Z,77.50
2017-07-11T02:12:07.428Z,78.90
2017-07-11T02:14:33.504Z,78.80
2017-07-11T02:16:59.414Z,79.40
2017-07-11T02:19:27.055Z,80.60
2017-07-11T02:21:53.034Z,80.60
2017-07-11T02:24:18.996Z,80.50
2017-07-11T02:26:44.944Z,80.20
2017-07-11T02:29:10.856Z,80.00
2017-07-11T02:31:37.524Z,80.00
2017-07-11T02:34:03.727Z,80.00
2017-07-11T02:36:29.740Z,80.00
2017-07-11T02:38:55.717Z,80.00
2017-07-11T02:41:21.735Z,80.00
2017-07-11T02:43:47.711Z,80.00
2017-07-11T02:46:13.688Z,79.90
2017-07-11T02:48:39.628Z,79.10
2017-07-11T02:51:05.608Z,78.40
2017-07-11T02:53:31.540Z,78.10
2017-07-11T02:55:57.457Z,78.20
2017-07-11T02:58:23.474Z,78.60
2017-07-11T03:00:49.389Z,78.90
2017-07-11T03:03:15.324Z,78.90
2017-07-11T03:05:41.300Z,78.70
2017-07-11T03:08:07.892Z,78.60
2017-07-11T03:10:33.887Z,78.70
2017-07-11T03:12:59.840Z,79.10
2017-07-11T03:15:25.795Z,79.20
2017-07-11T03:17:52.464Z,80.20
2017-07-11T03:20:18.404Z,80.10
2017-07-11T03:22:44.340Z,80.60
2017-07-11T03:25:10.295Z,81.10
2017-07-11T03:27:36.285Z,81.20
2017-07-11T03:30:02.494Z,81.40
2017-07-11T03:32:28.423Z,81.40
2017-07-11T03:34:54.356Z,81.50
2017-07-11T03:37:20.471Z,81.60
2017-07-11T03:39:46.406Z,81.80
2017-07-11T03:42:12.344Z,81.80
2017-07-11T03:44:38.254Z,81.80
2017-07-11T03:47:04.197Z,82.20
2017-07-11T03:49:30.092Z,83.30
2017-07-11T03:51:56.016Z,84.00
2017-07-11T03:54:21.963Z,84.10
2017-07-11T03:56:47.876Z,84.20
2017-07-11T03:59:13.800Z,83.90
2017-07-11T04:01:39.741Z,84.10
2017-07-11T04:04:05.656Z,84.00
2017-07-11T04:06:31.610Z,83.90
2017-07-11T04:08:57.604Z,83.90
2017-07-11T04:11:23.560Z,84.10
2017-07-11T04:13:49.496Z,84.20
2017-07-11T04:16:15.420Z,84.80
2017-07-11T04:18:41.401Z,84.60
2017-07-11T04:21:07.324Z,84.20
2017-07-11T04:23:33.266Z,83.60
2017-07-11T04:25:59.192Z,83.60
2017-07-11T04:28:25.110Z,83.40
2017-07-11T04:30:51.059Z,83.40
2017-07-11T04:33:16.991Z,83.60
2017-07-11T04:35:42.905Z,83.70
2017-07-11T04:38:08.857Z,84.90
2017-07-11T04:40:35.027Z,85.40
2017-07-11T04:43:00.965Z,85.00
2017-07-11T04:45:26.942Z,84.30
2017-07-11T04:47:52.893Z,84.20
2017-07-11T04:50:18.858Z,84.00
2017-07-11T04:52:44.780Z,83.80
2017-07-11T04:55:10.703Z,83.60
2017-07-11T04:57:36.715Z,83.40
2017-07-11T05:00:02.674Z,83.20
2017-07-11T05:02:28.656Z,83.30
2017-07-11T05:04:54.584Z,83.80
2017-07-11T05:07:20.524Z,83.40
2017-07-11T05:09:46.452Z,83.80
2017-07-11T05:12:12.368Z,83.40
2017-07-11T05:14:38.284Z,83.30
2017-07-11T05:17:04.550Z,83.10
2017-07-11T05:19:31.215Z,83.40
2017-07-11T05:21:57.156Z,83.30
2017-07-11T05:24:23.090Z,83.50
2017-07-11T05:26:49.018Z,83.60
2017-07-11T05:29:14.978Z,83.80
2017-07-11T05:31:41.035Z,83.80
2017-07-11T05:34:07.095Z,83.70
2017-07-11T05:36:33.051Z,84.20
2017-07-11T05:38:58.977Z,84.40
2017-07-11T05:41:24.944Z,85.10
2017-07-11T05:43:50.912Z,85.20
2017-07-11T05:46:17.580Z,85.10
2017-07-11T05:48:43.574Z,85.50
2017-07-11T05:51:09.529Z,86.40
2017-07-11T05:53:35.491Z,86.60
2017-07-11T05:56:01.538Z,86.50
2017-07-11T05:58:27.463Z,86.20
2017-07-11T06:00:53.460Z,85.90
2017-07-11T06:03:19.405Z,85.20
2017-07-11T06:05:45.373Z,84.10
2017-07-11T06:08:11.288Z,83.80
2017-07-11T06:10:37.257Z,83.60
2017-07-11T06:13:04.044Z,83.70
2017-07-11T06:15:30.020Z,82.90
2017-07-11T06:17:56.771Z,83.80
2017-07-11T06:20:22.764Z,83.90
2017-07-11T06:22:48.709Z,83.40
2017-07-11T06:25:15.376Z,82.00
2017-07-11T06:27:41.294Z,82.00
2017-07-11T06:30:07.336Z,81.00
2017-07-11T06:32:33.297Z,81.60
2017-07-11T06:34:59.309Z,80.70
2017-07-11T06:37:25.259Z,80.50
2017-07-11T06:39:51.219Z,81.60
2017-07-11T06:42:17.209Z,80.90
2017-07-11T06:44:43.185Z,79.30
2017-07-11T06:47:09.174Z,78.80
2017-07-11T06:49:35.147Z,78.20
2017-07-11T06:52:01.107Z,77.70
2017-07-11T06:54:27.033Z,76.20
2017-07-11T06:56:52.984Z,76.40
2017-07-11T06:59:18.925Z,76.70
2017-07-11T07:01:44.856Z,75.20
2017-07-11T07:04:10.788Z,75.60
2017-07-11T07:06:37.524Z,73.80
2017-07-11T07:09:03.623Z,70.90
2017-07-11T07:11:29.553Z,64.70
2017-07-11T07:13:55.522Z,64.40
2017-07-11T07:16:21.468Z,64.10
2017-07-11T07:18:47.419Z,64.50
2017-07-11T07:21:14.182Z,64.10
2017-07-11T07:23:40.879Z,63.60
2017-07-11T07:26:06.835Z,63.50
2017-07-11T07:28:32.800Z,63.70
2017-07-11T07:30:58.753Z,62.80
2017-07-11T07:33:24.727Z,64.00
2017-07-11T07:35:50.684Z,63.60
2017-07-11T07:38:16.679Z,61.80
2017-07-11T07:40:42.670Z,61.30
2017-07-11T07:43:08.594Z,60.80
2017-07-11T07:45:35.297Z,60.20
2017-07-11T07:48:01.254Z,59.60
2017-07-11T07:50:27.170Z,59.90
2017-07-11T07:52:53.107Z,59.70
2017-07-11T07:55:19.084Z,59.80
2017-07-11T07:57:45.080Z,60.90
2017-07-11T08:00:11.036Z,60.90
2017-07-11T08:02:37.820Z,61.30
2017-07-11T08:05:03.794Z,60.10
2017-07-11T08:07:29.757Z,60.70
2017-07-11T08:09:56.674Z,60.60
2017-07-11T08:12:22.684Z,61.10
2017-07-11T08:14:48.676Z,60.90
2017-07-11T08:17:14.637Z,60.90
2017-07-11T08:19:41.307Z,61.60
2017-07-11T08:22:07.323Z,60.50
2017-07-11T08:24:33.279Z,59.80
2017-07-11T08:27:06.159Z,61.00
2017-07-11T08:29:32.071Z,60.60
2017-07-11T08:31:58.011Z,59.30
2017-07-11T08:34:23.974Z,59.10
2017-07-11T08:36:49.909Z,59.60
2017-07-11T08:39:15.857Z,59.40
2017-07-11T08:41:41.791Z,58.80
2017-07-11T08:44:07.723Z,58.60
2017-07-11T08:46:33.782Z,58.00
2017-07-11T08:48:59.769Z,58.30
2017-07-11T08:51:25.764Z,58.70
2017-07-11T08:53:51.784Z,58.40
2017-07-11T08:56:17.791Z,58.60
2017-07-11T08:58:43.772Z,58.40
2017-07-11T09:01:09.752Z,58.00
2017-07-11T09:03:35.729Z,58.60
2017-07-11T09:06:02.412Z,57.60
2017-07-11T09:08:28.379Z,57.60
2017-07-11T09:10:54.326Z,57.20
2017-07-11T09:13:20.341Z,56.70
2017-07-11T09:15:46.298Z,56.90
2017-07-11T09:18:12.431Z,57.30
2017-07-11T09:20:38.385Z,57.10
2017-07-11T09:23:05.475Z,56.90
2017-07-11T09:25:31.420Z,56.80
2017-07-11T09:27:57.428Z,56.40
2017-07-11T09:30:23.435Z,55.70
2017-07-11T09:32:49.364Z,55.70
2017-07-11T09:35:15.313Z,55.00
2017-07-11T09:37:41.272Z,55.70
2017-07-11T09:40:07.229Z,55.70
2017-07-11T09:42:33.181Z,55.90
2017-07-11T09:44:59.166Z,55.90
2017-07-11T09:47:25.115Z,56.10
2017-07-11T09:49:51.716Z,54.50
2017-07-11T09:52:17.654Z,54.20
2017-07-11T09:54:43.598Z,54.50
2017-07-11T09:57:09.606Z,53.70
2017-07-11T09:59:35.571Z,53.80
2017-07-11T10:02:02.340Z,53.40
2017-07-11T10:04:28.279Z,53.40
2017-07-11T10:06:54.949Z,53.90
2017-07-11T10:09:20.930Z,53.20
2017-07-11T10:11:46.897Z,53.30
2017-07-11T10:14:12.888Z,52.90
2017-07-11T10:16:38.884Z,52.50
2017-07-11T10:19:04.934Z,51.10
2017-07-11T10:21:30.933Z,51.20
2017-07-11T10:23:56.886Z,50.70
2017-07-11T10:26:22.804Z,50.60
2017-07-11T10:28:48.768Z,50.60
2017-07-11T10:31:15.480Z,51.50
2017-07-11T10:33:41.501Z,51.40
2017-07-11T10:36:07.500Z,51.30
2017-07-11T10:38:33.465Z,51.70
2017-07-11T10:40:59.440Z,50.80
2017-07-11T10:43:25.408Z,50.90
2017-07-11T10:45:51.381Z,50.20
2017-07-11T10:48:17.316Z,49.70
2017-07-11T10:50:43.277Z,49.30
2017-07-11T10:53:09.976Z,49.10
2017-07-11T10:55:36.752Z,49.00
2017-07-11T10:58:02.714Z,48.40
2017-07-11T11:00:28.776Z,48.80
2017-07-11T11:02:54.747Z,49.50
2017-07-11T11:05:20.698Z,49.00
2017-07-11T11:07:46.648Z,48.30
2017-07-11T11:10:12.609Z,47.80
2017-07-11T11:12:38.601Z,48.00
2017-07-11T11:15:04.632Z,46.70
2017-07-11T11:17:30.592Z,46.40
2017-07-11T11:19:56.522Z,46.30
2017-07-11T11:22:22.516Z,46.60
2017-07-11T11:24:49.089Z,46.60
2017-07-11T11:27:15.047Z,46.20
2017-07-11T11:29:40.963Z,46.30
2017-07-11T11:32:06.933Z,45.50
2017-07-11T11:34:32.982Z,45.30
2017-07-11T11:36:59.077Z,45.10
2017-07-11T11:39:25.368Z,45.40
2017-07-11T11:41:52.128Z,45.20
2017-07-11T11:44:18.740Z,45.20
2017-07-11T11:46:45.513Z,45.70
2017-07-11T11:49:11.442Z,45.70
2017-07-11T11:51:37.421Z,45.90
2017-07-11T11:54:04.161Z,44.80
2017-07-11T11:56:30.153Z,44.50
2017-07-11T11:58:56.139Z,44.90
2017-07-11T12:01:22.201Z,45.10
2017-07-11T12:03:48.178Z,44.50
2017-07-11T12:06:14.180Z,44.30
2017-07-11T12:08:40.960Z,44.30
2017-07-11T12:11:06.946Z,44.30
2017-07-11T12:13:33.679Z,44.00
2017-07-11T12:15:59.754Z,44.00
2017-07-11T12:18:26.701Z,43.00
2017-07-11T12:20:54.466Z,43.40
2017-07-11T12:23:20.439Z,42.60
2017-07-11T12:25:46.408Z,42.70
2017-07-11T12:28:12.451Z,42.30
2017-07-11T12:30:38.472Z,42.50
2017-07-11T12:33:05.248Z,42.30
2017-07-11T12:35:32.185Z,42.70
2017-07-11T12:37:58.193Z,41.90
2017-07-11T12:40:28.741Z,42.00
2017-07-11T12:42:55.534Z,42.80
2017-07-11T12:45:21.460Z,42.80
2017-07-11T12:47:47.426Z,42.70
2017-07-11T12:50:13.429Z,42.30
2017-07-11T12:52:39.396Z,42.50
2017-07-11T12:55:05.550Z,42.20
2017-07-11T12:57:31.504Z,42.00
2017-07-11T12:59:57.510Z,41.70
2017-07-11T13:02:24.156Z,41.80
2017-07-11T13:04:50.894Z,42.00
2017-07-11T13:07:16.861Z,41.90
2017-07-11T13:09:42.820Z,41.20
2017-07-11T13:12:08.769Z,41.10
2017-07-11T13:14:35.572Z,41.20
2017-07-11T13:17:01.586Z,41.20
2017-07-11T13:19:29.137Z,42.00
2017-07-11T13:21:58.276Z,41.80
2017-07-11T13:24:24.847Z,41.20
2017-07-11T13:26:51.700Z,40.70
2017-07-11T13:29:18.675Z,40.60
2017-07-11T13:31:44.696Z,40.50
2017-07-11T13:34:13.216Z,40.40
2017-07-11T13:36:39.874Z,40.60
2017-07-11T13:39:06.110Z,40.60
2017-07-11T13:41:35.128Z,39.30
2017-07-11T13:44:02.014Z,39.70
2017-07-11T13:46:28.002Z,39.60
2017-07-11T13:48:54.064Z,39.50
2017-07-11T13:51:20.118Z,38.70
2017-07-11T13:53:46.132Z,38.20
2017-07-11T13:56:13.763Z,39.00
2017-07-11T13:58:41.416Z,39.10
2017-07-11T14:01:07.839Z,39.00
2017-07-11T14:03:34.508Z,38.60
2017-07-11T14:06:02.361Z,39.60
2017-07-11T14:08:29.562Z,40.40
2017-07-11T14:10:58.457Z,40.30
2017-07-11T14:13:24.519Z,41.70
2017-07-11T14:15:50.592Z,42.70
2017-07-11T14:18:16.620Z,43.50
2017-07-11T14:20:42.590Z,44.00
2017-07-11T14:23:08.740Z,44.40
2017-07-11T14:25:34.655Z,45.90
2017-07-11T14:28:00.607Z,46.60
2017-07-11T14:30:26.541Z,47.40
2017-07-11T14:32:52.488Z,47.90
2017-07-11T14:35:18.462Z,48.70
2017-07-11T14:37:44.412Z,48.80
2017-07-11T14:40:10.326Z,47.20
2017-07-11T14:42:36.364Z,47.10
2017-07-11T14:45:08.345Z,47.50
2017-07-11T14:47:34.368Z,47.70
2017-07-11T14:50:00.417Z,48.00
2017-07-11T14:52:26.350Z,48.50
2017-07-11T14:54:52.395Z,49.40
2017-07-11T14:57:20.952Z,50.70
2017-07-11T14:59:47.456Z,51.60
2017-07-11T15:02:13.568Z,51.60
2017-07-11T15:04:39.537Z,51.20
2017-07-11T15:07:05.495Z,50.90
2017-07-11T15:09:31.472Z,51.10
2017-07-11T15:11:57.481Z,51.00
2017-07-11T15:14:23.416Z,50.70
2017-07-11T15:16:49.340Z,50.40
2017-07-11T15:19:15.247Z,50.60
2017-07-11T15:21:41.218Z,50.90
2017-07-11T15:24:07.186Z,50.50
2017-07-11T15:26:33.133Z,50.50
2017-07-11T15:28:59.093Z,50.40
2017-07-11T15:31:47.520Z,49.70
2017-07-11T15:34:13.528Z,50.10
2017-07-11T15:39:20.419Z,49.60
2017-07-11T15:41:46.472Z,49.60
2017-07-11T15:44:12.461Z,49.30
2017-07-11T15:46:38.453Z,48.50
2017-07-11T15:49:04.429Z,47.80
2017-07-11T15:51:30.423Z,47.40
2017-07-11T15:53:56.414Z,46.60
2017-07-11T15:56:22.455Z,46.60
2017-07-11T15:58:48.495Z,46.90
2017-07-11T16:01:14.484Z,47.50
2017-07-11T16:03:40.513Z,47.70
2017-07-11T16:06:06.452Z,48.00
2017-07-11T16:08:32.440Z,47.30
2017-07-11T16:10:59.246Z,48.20
2017-07-11T16:13:25.246Z,48.20
2017-07-11T16:15:51.350Z,48.50
2017-07-11T16:18:17.319Z,48.70
2017-07-11T16:20:43.315Z,49.60
2017-07-11T16:23:09.564Z,49.70
2017-07-11T16:25:35.462Z,49.80
2017-07-11T16:28:01.494Z,49.90
2017-07-11T16:30:27.412Z,49.40
2017-07-11T16:32:53.436Z,48.90
2017-07-11T16:35:19.407Z,49.20
2017-07-11T16:37:46.111Z,48.70
2017-07-11T16:40:13.299Z,48.70
2017-07-11T16:42:39.905Z,48.30
2017-07-11T16:45:05.905Z,48.40
2017-07-11T16:47:32.026Z,48.10
2017-07-11T16:49:58.152Z,48.40
2017-07-11T16:52:24.149Z,48.40
2017-07-11T16:54:50.105Z,48.60
2017-07-11T16:57:16.117Z,49.20
2017-07-11T16:59:42.114Z,49.10
2017-07-11T17:02:08.149Z,49.40
2017-07-11T17:04:34.129Z,49.90
2017-07-11T17:07:00.848Z,49.90
2017-07-11T17:09:26.820Z,49.80
2017-07-11T17:11:52.780Z,49.20
2017-07-11T17:14:18.878Z,49.60
2017-07-11T17:16:44.759Z,50.20
2017-07-11T17:19:10.720Z,50.30
2017-07-11T17:21:36.670Z,51.00
2017-07-11T17:24:02.661Z,50.60
2017-07-11T17:26:28.581Z,50.90
2017-07-11T17:28:54.624Z,50.90
2017-07-11T17:31:20.573Z,51.30
2017-07-11T17:33:46.569Z,51.90
2017-07-11T17:36:12.510Z,51.80
2017-07-11T17:38:38.448Z,51.90
2017-07-11T17:41:04.363Z,52.20
2017-07-11T17:43:30.323Z,51.40
2017-07-11T17:45:56.256Z,51.90
2017-07-11T17:48:22.364Z,52.40
2017-07-11T17:50:48.314Z,53.90
2017-07-11T17:53:14.301Z,54.50
2017-07-11T17:55:40.240Z,54.80
2017-07-11T17:58:06.250Z,55.30
2017-07-11T18:00:32.229Z,55.30
2017-07-11T18:02:58.209Z,55.80
2017-07-11T18:05:24.124Z,55.70
2017-07-11T18:07:50.099Z,56.10
2017-07-11T18:10:16.091Z,56.50
2017-07-11T18:12:42.052Z,56.90
2017-07-11T18:15:09.673Z,57.40
2017-07-11T18:17:35.664Z,57.30
2017-07-11T18:20:01.625Z,57.70
2017-07-11T18:22:27.628Z,57.40
2017-07-11T18:24:53.579Z,57.30
2017-07-11T18:27:19.603Z,57.60
2017-07-11T18:29:45.535Z,57.70
2017-07-11T18:32:11.457Z,57.80
2017-07-11T18:34:37.376Z,58.10
2017-07-11T18:37:03.368Z,58.70
2017-07-11T18:39:29.296Z,58.60
2017-07-11T18:41:55.309Z,59.00
2017-07-11T18:44:21.249Z,59.50
2017-07-11T18:46:47.171Z,59.80
2017-07-11T18:49:13.106Z,60.60
2017-07-11T18:51:39.051Z,61.20
2017-07-11T18:54:05.079Z,61.00
2017-07-11T18:56:31.137Z,61.50
2017-07-11T18:58:57.186Z,61.90
2017-07-11T19:01:23.096Z,62.10
2017-07-11T19:03:49.051Z,62.30
2017-07-11T19:06:15.008Z,62.50
2017-07-11T19:08:40.973Z,62.00
2017-07-11T19:11:07.700Z,62.80
2017-07-11T19:13:33.618Z,62.80
2017-07-11T19:16:00.757Z,62.80
2017-07-11T19:18:26.788Z,62.90
2017-07-11T19:20:52.728Z,63.20
2017-07-11T19:23:19.422Z,63.00
2017-07-11T19:25:45.362Z,62.90
2017-07-11T19:28:11.381Z,62.90
2017-07-11T19:30:37.303Z,63.10
2017-07-11T19:33:03.292Z,62.80
2017-07-11T19:35:29.215Z,62.90
2017-07-11T19:37:55.174Z,62.60
2017-07-11T19:40:21.121Z,62.90
2017-07-11T19:42:47.077Z,62.70
2017-07-11T19:45:13.025Z,63.10
2017-07-11T19:47:38.948Z,63.30
2017-07-11T19:50:04.945Z,63.70
2017-07-11T19:52:30.963Z,63.30
2017-07-11T19:54:56.916Z,63.60
2017-07-11T19:57:22.870Z,64.00
2017-07-11T19:59:48.798Z,64.10
2017-07-11T20:02:14.763Z,64.10
2017-07-11T20:04:40.721Z,63.90
2017-07-11T20:07:06.664Z,64.00
2017-07-11T20:09:32.633Z,64.40
2017-07-11T20:11:58.572Z,64.80
2017-07-11T20:14:24.520Z,65.00
2017-07-11T20:16:51.543Z,65.00
2017-07-11T20:19:17.606Z,65.30
2017-07-11T20:21:43.553Z,65.40
2017-07-11T20:24:09.510Z,66.00
2017-07-11T20:26:35.484Z,66.80
2017-07-11T20:29:01.463Z,67.20
2017-07-11T20:31:27.388Z,67.90
2017-07-11T20:33:53.342Z,68.50
2017-07-11T20:36:19.264Z,68.80
2017-07-11T20:38:45.187Z,68.90
2017-07-11T20:41:11.104Z,68.90
2017-07-11T20:43:37.032Z,69.00
2017-07-11T20:46:02.996Z,68.60
2017-07-11T20:48:30.066Z,68.70
2017-07-11T20:50:59.986Z,68.70
2017-07-11T20:53:27.751Z,68.80
2017-07-11T20:55:53.906Z,69.00
2017-07-11T20:58:19.925Z,69.20
2017-07-11T21:00:45.921Z,69.40
2017-07-11T21:03:11.972Z,69.60
2017-07-11T21:05:37.976Z,70.10
2017-07-11T21:08:03.914Z,70.60
2017-07-11T21:10:30.160Z,71.00
2017-07-11T21:12:56.877Z,71.70
2017-07-11T21:15:22.808Z,71.60
2017-07-11T21:17:48.795Z,72.00
2017-07-11T21:20:15.671Z,72.20
2017-07-11T21:22:41.662Z,72.30
2017-07-11T21:25:07.663Z,72.30
2017-07-11T21:27:33.641Z,73.20
2017-07-11T21:29:59.630Z,73.40
2017-07-11T21:32:25.659Z,73.70
2017-07-11T21:34:51.960Z,73.80
2017-07-11T21:37:17.915Z,74.90
2017-07-11T21:39:43.946Z,74.70
2017-07-11T21:42:09.936Z,75.50
2017-07-11T21:44:35.884Z,75.40
2017-07-11T21:47:01.838Z,75.30
2017-07-11T21:49:27.823Z,75.50
2017-07-11T21:51:53.802Z,75.90
2017-07-11T21:54:19.765Z,76.70
2017-07-11T21:56:45.776Z,76.90
2017-07-11T21:59:11.737Z,77.10
2017-07-11T22:01:37.753Z,77.10
2017-07-11T22:04:03.926Z,77.20
2017-07-11T22:06:29.980Z,76.80
2017-07-11T22:08:55.972Z,76.90
2017-07-11T22:11:21.938Z,76.80
2017-07-11T22:13:47.936Z,76.40
2017-07-11T22:16:13.941Z,76.40
2017-07-11T22:18:39.992Z,76.70
2017-07-11T22:21:06.089Z,76.60
2017-07-11T22:23:32.022Z,76.40
2017-07-11T22:25:57.977Z,76.30
2017-07-11T22:28:23.938Z,76.20
2017-07-11T22:30:50.650Z,76.40
2017-07-11T22:33:16.647Z,76.30
2017-07-11T22:35:42.619Z,76.80
2017-07-11T22:38:09.396Z,77.50
2017-07-11T22:40:35.343Z,78.20
2017-07-11T22:43:01.328Z,78.50
2017-07-11T22:45:27.266Z,78.60
2017-07-11T22:47:53.312Z,78.90
2017-07-11T22:50:19.276Z,79.20
2017-07-11T22:52:45.233Z,79.20
2017-07-11T22:55:11.324Z,79.10
2017-07-11T22:57:37.281Z,79.10
2017-07-11T23:00:04.996Z,79.00
2017-07-11T23:02:31.015Z,79.00
2017-07-11T23:04:56.975Z,79.30
2017-07-11T23:07:23.461Z,79.40
2017-07-11T23:09:49.481Z,79.20
2017-07-11T23:12:15.432Z,79.20
2017-07-11T23:14:42.198Z,79.30
2017-07-11T23:17:08.168Z,79.30
2017-07-11T23:19:34.129Z,79.20
2017-07-11T23:22:00.796Z,79.90
2017-07-11T23:24:26.740Z,80.70
2017-07-11T23:26:52.748Z,81.00
2017-07-11T23:29:18.686Z,81.20
2017-07-11T23:31:44.629Z,81.10
2017-07-11T23:34:11.158Z,81.50
2017-07-11T23:36:37.196Z,81.60
2017-07-11T23:39:03.404Z,81.70
2017-07-11T23:41:30.599Z,81.60
2017-07-11T23:43:56.571Z,81.60
2017-07-11T23:46:22.600Z,81.90
2017-07-11T23:48:49.323Z,82.30
2017-07-11T23:51:15.256Z,82.20
2017-07-11T23:53:41.273Z,82.40
2017-07-11T23:56:08.014Z,83.20
2017-07-11T23:58:33.933Z,82.60
